Terminal Aerodrome Forecast
Issued by NWS

Home | Current Version | Previous Version | Text Only | Print | Product List | Glossary On
Versions: 1 2 3 4 5 6 7 8 9 10 11 12 13 14 15 16 17 18
000
FTUS41 KBGM 290800 AAA
TAFELM
TAF AMD
KELM 290843Z 2909/3006 00000KT P6SM SKC
     FM291100 14004KT P6SM BKN150
     FM291700 15010KT P6SM OVC080
     FM292300 16012KT 2SM -SN OVC025=

USA.gov is the U.S. government's official web portal to all federal, state and local government web resources and services.